createdAt,value
2017-10-11T00:00:00.421Z,14.03
2017-10-11T00:00:41.011Z,13.99
2017-10-11T00:01:21.573Z,13.89
2017-10-11T00:02:02.139Z,13.96
2017-10-11T00:02:42.702Z,13.95
2017-10-11T00:03:23.300Z,13.92
2017-10-11T00:04:03.867Z,13.95
2017-10-11T00:04:44.437Z,13.89
2017-10-11T00:05:24.996Z,13.97
2017-10-11T00:06:05.561Z,13.92
2017-10-11T00:06:46.130Z,13.96
2017-10-11T00:07:26.709Z,13.89
2017-10-11T00:08:07.272Z,13.96
2017-10-11T00:08:47.849Z,13.95
2017-10-11T00:09:28.436Z,14
2017-10-11T00:10:09.033Z,13.95
2017-10-11T00:10:49.587Z,13.93
2017-10-11T00:11:30.152Z,13.95
2017-10-11T00:12:10.720Z,13.92
2017-10-11T00:12:51.289Z,14.04
2017-10-11T00:13:31.855Z,13.95
2017-10-11T00:14:12.425Z,13.93
2017-10-11T00:14:52.975Z,13.95
2017-10-11T00:15:33.548Z,13.97
2017-10-11T00:16:14.112Z,13.99
2017-10-11T00:16:54.677Z,13.9
2017-10-11T00:17:35.274Z,13.99
2017-10-11T00:18:15.829Z,14.03
2017-10-11T00:18:56.387Z,13.92
2017-10-11T00:19:36.947Z,13.92
2017-10-11T00:20:17.505Z,14.05
2017-10-11T00:20:58.076Z,13.9
2017-10-11T00:21:38.637Z,13.99
2017-10-11T00:22:19.189Z,13.97
2017-10-11T00:22:59.763Z,14.04
2017-10-11T00:23:40.326Z,13.99
2017-10-11T00:24:20.893Z,13.9
2017-10-11T00:25:01.465Z,13.99
2017-10-11T00:25:42.034Z,14.03
2017-10-11T00:26:22.610Z,14.07
2017-10-11T00:27:03.169Z,14
2017-10-11T00:27:43.734Z,14
2017-10-11T00:28:24.291Z,14.08
2017-10-11T00:29:04.898Z,14.04
2017-10-11T00:29:45.457Z,14.03
2017-10-11T00:30:26.021Z,14.05
2017-10-11T00:31:06.583Z,14.04
2017-10-11T00:31:47.146Z,13.96
2017-10-11T00:32:27.728Z,13.99
2017-10-11T00:33:08.288Z,14.05
2017-10-11T00:33:48.867Z,14.03
2017-10-11T00:34:29.439Z,14.07
2017-10-11T00:35:10.010Z,13.99
2017-10-11T00:35:50.574Z,13.96
2017-10-11T00:36:31.134Z,14.04
2017-10-11T00:37:11.699Z,14
2017-10-11T00:37:52.266Z,14.04
2017-10-11T00:38:32.818Z,14.04
2017-10-11T00:39:13.382Z,14.04
2017-10-11T00:39:53.945Z,14.08
2017-10-11T00:40:34.501Z,14.04
2017-10-11T00:41:15.060Z,13.99
2017-10-11T00:41:55.629Z,13.96
2017-10-11T00:42:36.194Z,14.11
2017-10-11T00:43:16.762Z,13.96
2017-10-11T00:43:57.320Z,14.07
2017-10-11T00:44:37.887Z,14.1
2017-10-11T00:45:18.452Z,13.99
2017-10-11T00:45:59.012Z,14
2017-10-11T00:46:39.587Z,14.05
2017-10-11T00:47:20.157Z,13.99
2017-10-11T00:48:00.750Z,14
2017-10-11T00:48:41.342Z,14
2017-10-11T00:49:21.914Z,14.14
2017-10-11T00:50:05.362Z,14.04
2017-10-11T00:50:45.932Z,14
2017-10-11T00:51:26.493Z,14.1
2017-10-11T00:52:07.062Z,14.04
2017-10-11T00:52:47.647Z,14.05
2017-10-11T00:53:28.211Z,14.1
2017-10-11T00:54:08.774Z,14.04
2017-10-11T00:54:49.339Z,14.07
2017-10-11T00:55:29.918Z,14.08
2017-10-11T00:56:10.494Z,14.04
2017-10-11T00:56:51.058Z,14
2017-10-11T00:57:31.619Z,14.03
2017-10-11T00:58:12.184Z,14.04
2017-10-11T00:58:52.745Z,14.05
2017-10-11T00:59:33.307Z,14
2017-10-11T01:00:13.869Z,14.04
2017-10-11T01:00:54.441Z,14.05
2017-10-11T01:01:35.010Z,14.04
2017-10-11T01:02:15.568Z,14.08
2017-10-11T01:02:56.144Z,14.04
2017-10-11T01:03:36.704Z,14.1
2017-10-11T01:04:17.261Z,14.07
2017-10-11T01:04:57.824Z,14.04
2017-10-11T01:05:38.410Z,14.04
2017-10-11T01:06:18.979Z,13.99
2017-10-11T01:06:59.560Z,14.07
2017-10-11T01:07:40.120Z,14.03
2017-10-11T01:08:20.686Z,14.04
2017-10-11T01:09:01.245Z,14.08
2017-10-11T01:09:41.818Z,14.07
2017-10-11T01:10:22.392Z,14.03
2017-10-11T01:11:02.946Z,14.04
2017-10-11T01:11:43.523Z,14.05
2017-10-11T01:12:24.089Z,14.05
2017-10-11T01:13:04.652Z,14.12
2017-10-11T01:13:45.213Z,14.03
2017-10-11T01:14:25.779Z,14.07
2017-10-11T01:15:06.362Z,14.03
2017-10-11T01:15:46.903Z,14.05
2017-10-11T01:16:27.476Z,14.05
2017-10-11T01:17:08.041Z,14.05
2017-10-11T01:17:48.599Z,14.07
2017-10-11T01:18:29.181Z,14.08
2017-10-11T01:19:09.740Z,14.07
2017-10-11T01:19:50.331Z,14.03
2017-10-11T01:20:30.925Z,14.08
2017-10-11T01:21:11.516Z,14.04
2017-10-11T01:21:52.072Z,14.05
2017-10-11T01:22:32.642Z,14.05
2017-10-11T01:23:13.203Z,14.05
2017-10-11T01:23:53.764Z,14.03
2017-10-11T01:24:34.324Z,14.05
2017-10-11T01:25:14.886Z,14.05
2017-10-11T01:25:55.444Z,14.05
2017-10-11T01:26:36.005Z,14.05
2017-10-11T01:27:16.563Z,14
2017-10-11T01:27:57.126Z,14.03
2017-10-11T01:28:37.697Z,14
2017-10-11T01:29:18.265Z,14.04
2017-10-11T01:29:58.842Z,14.05
2017-10-11T01:30:39.426Z,14.07
2017-10-11T01:31:20.003Z,14.05
2017-10-11T01:32:00.547Z,14.07
2017-10-11T01:32:41.118Z,14.04
2017-10-11T01:33:21.687Z,14.03
2017-10-11T01:34:02.258Z,14.08
2017-10-11T01:34:42.812Z,14.1
2017-10-11T01:35:23.388Z,14.03
2017-10-11T01:36:03.969Z,14.04
2017-10-11T01:36:44.523Z,14.1
2017-10-11T01:37:25.096Z,14.03
2017-10-11T01:38:05.658Z,14.07
2017-10-11T01:38:46.229Z,14.11
2017-10-11T01:39:26.797Z,14.07
2017-10-11T01:40:07.363Z,14.05
2017-10-11T01:40:47.926Z,14.08
2017-10-11T01:41:28.489Z,14.05
2017-10-11T01:42:09.052Z,14.08
2017-10-11T01:42:49.619Z,14.05
2017-10-11T01:43:30.186Z,14.08
2017-10-11T01:44:10.746Z,14.03
2017-10-11T01:44:51.318Z,14.07
2017-10-11T01:45:31.889Z,14.12
2017-10-11T01:46:12.452Z,14.12
2017-10-11T01:46:53.021Z,14.07
2017-10-11T01:47:33.586Z,14.08
2017-10-11T01:48:14.152Z,14.12
2017-10-11T01:48:54.715Z,14.1
2017-10-11T01:49:35.273Z,14.07
2017-10-11T01:50:15.836Z,14.04
2017-10-11T01:50:56.406Z,14.08
2017-10-11T01:51:36.990Z,14
2017-10-11T01:52:17.594Z,14.08
2017-10-11T01:52:58.169Z,14.03
2017-10-11T01:53:38.726Z,14.1
2017-10-11T01:54:19.308Z,14.14
2017-10-11T01:54:59.872Z,14.11
2017-10-11T01:55:40.432Z,14.03
2017-10-11T01:56:21.000Z,14.1
2017-10-11T01:57:01.572Z,14.04
2017-10-11T01:57:42.161Z,14.1
2017-10-11T01:58:22.728Z,14.08
2017-10-11T01:59:03.294Z,14.1
2017-10-11T01:59:43.857Z,14.1
2017-10-11T02:00:24.432Z,14.08
2017-10-11T02:01:05.011Z,14.11
2017-10-11T02:01:45.568Z,14.07
2017-10-11T02:02:26.130Z,14.05
2017-10-11T02:03:06.685Z,14.08
2017-10-11T02:03:47.248Z,14.1
2017-10-11T02:04:27.815Z,14.05
2017-10-11T02:05:08.380Z,14.08
2017-10-11T02:05:48.957Z,14.05
2017-10-11T02:06:29.527Z,14.08
2017-10-11T02:07:10.092Z,14.1
2017-10-11T02:07:50.657Z,14.03
2017-10-11T02:08:31.231Z,14.05
2017-10-11T02:09:11.794Z,14.07
2017-10-11T02:09:52.980Z,14.05
2017-10-11T02:10:33.542Z,14.04
2017-10-11T02:11:14.109Z,14.04
2017-10-11T02:11:54.661Z,14.07
2017-10-11T02:12:35.228Z,14.11
2017-10-11T02:13:15.801Z,14.07
2017-10-11T02:13:56.369Z,14.07
2017-10-11T02:14:36.934Z,14.15
2017-10-11T02:15:17.528Z,14.04
2017-10-11T02:15:58.104Z,14.05
2017-10-11T02:16:38.669Z,14.05
2017-10-11T02:17:19.247Z,14.08
2017-10-11T02:17:59.826Z,14.08
2017-10-11T02:18:42.380Z,14.12
2017-10-11T02:19:22.956Z,14.1
2017-10-11T02:20:06.385Z,14.04
2017-10-11T02:20:46.947Z,14.04
2017-10-11T02:21:27.523Z,14.07
2017-10-11T02:22:08.093Z,14.11
2017-10-11T02:22:48.662Z,14.07
2017-10-11T02:23:29.239Z,14.07
2017-10-11T02:24:09.825Z,14.08
2017-10-11T02:24:50.404Z,14.07
2017-10-11T02:25:30.969Z,14.07
2017-10-11T02:26:11.538Z,14
2017-10-11T02:26:52.111Z,13.99
2017-10-11T02:27:32.661Z,14.04
2017-10-11T02:28:13.233Z,14.04
2017-10-11T02:28:53.805Z,13.99
2017-10-11T02:29:34.372Z,14.03
2017-10-11T02:30:14.941Z,14.05
2017-10-11T02:30:55.516Z,14.08
2017-10-11T02:31:36.097Z,14.03
2017-10-11T02:32:16.662Z,14.1
2017-10-11T02:32:57.228Z,14.08
2017-10-11T02:33:37.802Z,14.03
2017-10-11T02:34:18.374Z,13.99
2017-10-11T02:34:58.941Z,14
2017-10-11T02:35:39.535Z,13.97
2017-10-11T02:36:20.121Z,13.99
2017-10-11T02:37:00.699Z,14
2017-10-11T02:37:41.266Z,14.05
2017-10-11T02:38:21.821Z,14.05
2017-10-11T02:39:02.393Z,14
2017-10-11T02:39:42.968Z,13.9
2017-10-11T02:40:23.530Z,13.9
2017-10-11T02:41:04.100Z,13.95
2017-10-11T02:41:44.663Z,13.93
2017-10-11T02:42:25.226Z,13.93
2017-10-11T02:43:05.790Z,13.87
2017-10-11T02:43:46.367Z,13.9
2017-10-11T02:44:26.931Z,13.95
2017-10-11T02:45:07.497Z,13.92
2017-10-11T02:45:48.078Z,13.9
2017-10-11T02:46:28.671Z,14.04
2017-10-11T02:48:37.200Z,13.99
2017-10-11T02:49:17.786Z,13.87
2017-10-11T02:51:45.385Z,13.89
2017-10-11T02:52:27.710Z,13.86
2017-10-11T02:53:08.283Z,13.92
2017-10-11T02:53:48.846Z,13.89
2017-10-11T02:54:29.413Z,13.9
2017-10-11T02:55:09.969Z,13.9
2017-10-11T02:55:50.534Z,13.92
2017-10-11T02:56:31.094Z,13.89
2017-10-11T02:57:11.688Z,13.86
2017-10-11T02:57:52.256Z,13.93
2017-10-11T02:58:34.529Z,13.9
2017-10-11T02:59:15.120Z,13.87
2017-10-11T02:59:55.688Z,13.9
2017-10-11T03:00:44.017Z,13.87
2017-10-11T03:01:24.589Z,13.9
2017-10-11T03:02:05.156Z,13.87
2017-10-11T03:02:45.726Z,13.89
2017-10-11T03:03:30.934Z,13.92
2017-10-11T03:04:21.718Z,13.89
2017-10-11T03:05:05.172Z,13.89
2017-10-11T03:05:50.431Z,13.92
2017-10-11T03:06:33.716Z,13.87
2017-10-11T03:07:18.927Z,13.9
2017-10-11T03:07:59.498Z,13.9
2017-10-11T03:08:42.824Z,13.87
2017-10-11T03:09:23.382Z,13.86
2017-10-11T03:10:03.950Z,13.87
2017-10-11T03:10:44.521Z,13.93
2017-10-11T03:11:25.095Z,13.92
2017-10-11T03:12:06.534Z,13.87
2017-10-11T03:12:47.099Z,13.89
2017-10-11T03:13:30.330Z,13.86
2017-10-11T03:14:10.904Z,13.9
2017-10-11T03:14:51.472Z,13.92
2017-10-11T03:15:32.038Z,13.87
2017-10-11T03:16:12.607Z,13.89
2017-10-11T03:16:57.713Z,13.93
2017-10-11T03:17:41.190Z,13.87
2017-10-11T03:18:21.741Z,13.89
2017-10-11T03:19:02.309Z,13.89
2017-10-11T03:19:42.870Z,13.92
2017-10-11T03:20:23.433Z,13.89
2017-10-11T03:21:08.713Z,13.96
2017-10-11T03:21:49.276Z,13.87
2017-10-11T03:22:29.865Z,13.79
2017-10-11T03:23:10.440Z,13.86
2017-10-11T03:23:51.824Z,13.81
2017-10-11T03:24:35.333Z,13.86
2017-10-11T03:25:15.928Z,13.78
2017-10-11T03:25:56.539Z,13.83
2017-10-11T03:26:37.113Z,13.86
2017-10-11T03:27:17.697Z,13.86
2017-10-11T03:27:59.174Z,13.81
2017-10-11T03:28:44.554Z,13.79
2017-10-11T03:29:25.721Z,13.78
2017-10-11T03:30:08.827Z,13.74
2017-10-11T03:30:50.188Z,13.78
2017-10-11T03:31:32.667Z,13.85
2017-10-11T03:32:13.236Z,13.78
2017-10-11T03:32:53.792Z,13.81
2017-10-11T03:33:34.350Z,13.81
2017-10-11T03:34:14.924Z,13.74
2017-10-11T03:34:55.509Z,13.78
2017-10-11T03:35:36.077Z,13.78
2017-10-11T03:36:16.642Z,13.79
2017-10-11T03:36:57.196Z,13.79
2017-10-11T03:37:37.780Z,13.74
2017-10-11T03:38:18.336Z,13.78
2017-10-11T03:38:58.898Z,13.85
2017-10-11T03:39:39.459Z,13.78
2017-10-11T03:40:20.021Z,13.79
2017-10-11T03:41:00.624Z,13.77
2017-10-11T03:41:43.718Z,13.74
2017-10-11T03:42:24.286Z,13.87
2017-10-11T03:43:04.842Z,13.81
2017-10-11T03:43:46.937Z,13.77
2017-10-11T03:44:28.029Z,13.79
2017-10-11T03:45:09.540Z,13.77
2017-10-11T03:45:50.125Z,13.81
2017-10-11T03:46:30.690Z,13.85
2017-10-11T03:47:13.227Z,13.75
2017-10-11T03:47:53.802Z,13.83
2017-10-11T03:48:34.356Z,13.78
2017-10-11T03:49:15.683Z,13.83
2017-10-11T03:49:56.260Z,13.77
2017-10-11T03:50:36.829Z,13.81
2017-10-11T03:51:17.389Z,13.81
2017-10-11T03:52:00.526Z,13.72
2017-10-11T03:52:41.101Z,13.75
2017-10-11T03:53:23.535Z,13.79
2017-10-11T03:54:04.107Z,13.75
2017-10-11T03:54:47.225Z,13.79
2017-10-11T03:55:30.336Z,13.75
2017-10-11T03:56:12.691Z,13.77
2017-10-11T03:56:53.249Z,13.79
2017-10-11T03:57:33.817Z,13.78
2017-10-11T03:58:14.403Z,13.78
2017-10-11T03:58:54.990Z,13.79
2017-10-11T03:59:35.563Z,13.81
2017-10-11T04:00:16.117Z,13.79
2017-10-11T04:00:56.680Z,13.77
2017-10-11T04:01:37.244Z,13.81
2017-10-11T04:02:17.811Z,13.79
2017-10-11T04:03:07.947Z,13.75
2017-10-11T04:03:48.501Z,13.77
2017-10-11T04:04:31.935Z,13.71
2017-10-11T04:05:12.496Z,13.79
2017-10-11T04:05:54.680Z,13.75
2017-10-11T04:06:35.245Z,13.77
2017-10-11T04:07:17.673Z,13.77
2017-10-11T04:07:58.237Z,13.83
2017-10-11T04:08:38.804Z,13.72
2017-10-11T04:09:19.373Z,13.77
2017-10-11T04:09:59.955Z,13.75
2017-10-11T04:10:43.197Z,13.74
2017-10-11T04:11:23.773Z,13.77
2017-10-11T04:12:05.345Z,13.72
2017-10-11T04:12:45.910Z,13.78
2017-10-11T04:13:27.062Z,13.75
2017-10-11T04:14:07.634Z,13.81
2017-10-11T04:14:49.177Z,13.71
2017-10-11T04:15:29.745Z,13.78
2017-10-11T04:16:10.305Z,13.72
2017-10-11T04:16:54.226Z,13.83
2017-10-11T04:17:34.793Z,13.75
2017-10-11T04:18:15.350Z,13.86
2017-10-11T04:18:55.922Z,13.75
2017-10-11T04:19:38.190Z,13.79
2017-10-11T04:20:18.779Z,13.77
2017-10-11T04:21:00.176Z,13.78
2017-10-11T04:21:40.740Z,13.75
2017-10-11T04:22:21.313Z,13.74
2017-10-11T04:23:01.920Z,13.75
2017-10-11T04:23:42.464Z,13.85
2017-10-11T04:24:23.025Z,13.83
2017-10-11T04:25:03.582Z,13.77
2017-10-11T04:25:44.164Z,13.78
2017-10-11T04:26:24.730Z,13.72
2017-10-11T04:27:05.314Z,13.77
2017-10-11T04:27:45.874Z,13.81
2017-10-11T04:28:26.440Z,13.83
2017-10-11T04:29:07.008Z,13.77
2017-10-11T04:29:47.593Z,13.83
2017-10-11T04:30:28.161Z,13.75
2017-10-11T04:31:08.718Z,13.83
2017-10-11T04:31:49.291Z,13.81
2017-10-11T04:32:29.847Z,13.81
2017-10-11T04:33:10.557Z,13.85
2017-10-11T04:33:51.002Z,13.81
2017-10-11T04:34:31.578Z,13.77
2017-10-11T04:35:12.141Z,13.79
2017-10-11T04:35:52.705Z,13.79
2017-10-11T04:36:33.270Z,13.79
2017-10-11T04:37:13.843Z,13.77
2017-10-11T04:37:54.407Z,13.78
2017-10-11T04:38:34.967Z,13.83
2017-10-11T04:39:15.558Z,13.75
2017-10-11T04:39:56.101Z,13.79
2017-10-11T04:40:36.671Z,13.81
2017-10-11T04:41:17.236Z,13.81
2017-10-11T04:41:57.799Z,13.81
2017-10-11T04:42:38.370Z,13.83
2017-10-11T04:43:18.928Z,13.86
2017-10-11T04:43:59.484Z,13.83
2017-10-11T04:44:40.122Z,13.89
2017-10-11T04:45:20.705Z,13.87
2017-10-11T04:46:01.282Z,13.89
2017-10-11T04:46:41.851Z,13.92
2017-10-11T04:47:22.421Z,13.81
2017-10-11T04:48:02.993Z,13.85
2017-10-11T04:48:44.378Z,13.93
2017-10-11T04:49:24.955Z,13.9
2017-10-11T04:50:05.504Z,13.89
2017-10-11T04:50:46.138Z,13.89
2017-10-11T04:51:26.703Z,13.83
2017-10-11T04:52:07.299Z,13.95
2017-10-11T04:52:47.951Z,13.81
2017-10-11T04:53:29.890Z,13.89
2017-10-11T04:54:11.501Z,13.89
2017-10-11T04:54:52.901Z,13.78
2017-10-11T04:55:33.453Z,13.79
2017-10-11T04:56:14.033Z,13.78
2017-10-11T04:56:55.027Z,13.83
2017-10-11T04:57:35.358Z,13.79
2017-10-11T04:58:15.918Z,13.85
2017-10-11T04:58:56.491Z,13.79
2017-10-11T04:59:37.044Z,13.81
2017-10-11T05:00:17.627Z,13.81
2017-10-11T05:00:58.195Z,13.77
2017-10-11T05:01:38.764Z,13.78
2017-10-11T05:02:19.357Z,13.85
2017-10-11T05:02:59.925Z,13.83
2017-10-11T05:03:40.584Z,13.77
2017-10-11T05:04:21.167Z,13.77
2017-10-11T05:05:01.738Z,13.77
2017-10-11T05:05:42.315Z,13.85
2017-10-11T05:06:22.888Z,13.81
2017-10-11T05:07:03.443Z,13.79
2017-10-11T05:07:44.005Z,13.78
2017-10-11T05:08:24.576Z,13.78
2017-10-11T05:09:05.141Z,13.77
2017-10-11T05:09:45.705Z,13.78
2017-10-11T05:10:26.264Z,13.81
2017-10-11T05:11:06.839Z,13.89
2017-10-11T05:11:47.397Z,13.85
2017-10-11T05:12:28.414Z,13.92
2017-10-11T05:13:11.054Z,13.9
2017-10-11T05:13:51.614Z,13.89
2017-10-11T05:14:32.170Z,13.85
2017-10-11T05:15:12.761Z,13.85
2017-10-11T05:15:53.319Z,13.9
2017-10-11T05:16:33.883Z,13.81
2017-10-11T05:17:14.441Z,13.77
2017-10-11T05:17:55.006Z,13.86
2017-10-11T05:18:35.571Z,13.86
2017-10-11T05:19:16.134Z,13.83
2017-10-11T05:19:56.695Z,13.75
2017-10-11T05:20:37.257Z,13.85
2017-10-11T05:21:17.814Z,13.77
2017-10-11T05:22:00.043Z,13.78
2017-10-11T05:22:40.786Z,13.78
2017-10-11T05:23:22.306Z,13.86
2017-10-11T05:24:02.990Z,13.81
2017-10-11T05:24:43.555Z,13.85
2017-10-11T05:25:24.130Z,13.95
2017-10-11T05:26:04.723Z,13.92
2017-10-11T05:26:45.281Z,13.92
2017-10-11T05:27:25.841Z,14.11
2017-10-11T05:28:06.415Z,14.17
2017-10-11T05:28:46.984Z,14.23
2017-10-11T05:29:27.553Z,14.33
2017-10-11T05:30:08.111Z,14.37
2017-10-11T05:30:48.669Z,14.51
2017-10-11T05:31:29.254Z,14.43
2017-10-11T05:32:09.827Z,14.5
2017-10-11T05:32:50.397Z,14.59
2017-10-11T05:33:30.979Z,14.68
2017-10-11T05:34:11.552Z,14.69
2017-10-11T05:34:52.166Z,14.66
2017-10-11T05:35:32.735Z,14.78
2017-10-11T05:36:13.311Z,14.81
2017-10-11T05:36:53.878Z,14.89
2017-10-11T05:37:34.452Z,14.97
2017-10-11T05:38:15.030Z,14.99
2017-10-11T05:38:55.611Z,15.09
2017-10-11T05:39:36.178Z,15.04
2017-10-11T05:40:16.752Z,15.04
2017-10-11T05:40:57.415Z,14.96
2017-10-11T05:41:38.127Z,14.91
2017-10-11T05:42:18.692Z,14.89
2017-10-11T05:42:59.708Z,14.84
2017-10-11T05:43:40.289Z,14.68
2017-10-11T05:44:20.874Z,14.72
2017-10-11T05:45:01.443Z,14.6
2017-10-11T05:45:42.057Z,14.59
2017-10-11T05:46:22.624Z,14.54
2017-10-11T05:47:03.180Z,14.62
2017-10-11T05:47:43.775Z,14.58
2017-10-11T05:48:24.347Z,14.5
2017-10-11T05:49:04.937Z,14.48
2017-10-11T05:49:45.497Z,14.44
2017-10-11T05:50:26.187Z,14.4
2017-10-11T05:51:06.690Z,14.35
2017-10-11T05:51:47.246Z,14.29
2017-10-11T05:52:27.821Z,14.32
2017-10-11T05:53:08.380Z,14.36
2017-10-11T05:53:48.974Z,14.36
2017-10-11T05:54:29.535Z,14.3
2017-10-11T05:55:10.116Z,14.26
2017-10-11T05:55:50.671Z,14.29
2017-10-11T05:56:31.250Z,14.25
2017-10-11T05:57:11.806Z,14.28
2017-10-11T05:57:52.367Z,14.25
2017-10-11T05:58:32.938Z,14.23
2017-10-11T05:59:13.505Z,14.12
2017-10-11T05:59:54.085Z,14.12
2017-10-11T06:00:34.651Z,14.07
2017-10-11T06:01:15.223Z,14.15
2017-10-11T06:01:55.809Z,14.14
2017-10-11T06:02:36.384Z,14.12
2017-10-11T06:03:16.982Z,14.17
2017-10-11T06:03:57.534Z,14.08
2017-10-11T06:04:38.108Z,14.1
2017-10-11T06:05:18.672Z,14.08
2017-10-11T06:05:59.233Z,14.1
2017-10-11T06:06:40.207Z,14.07
2017-10-11T06:07:20.775Z,14.04
2017-10-11T06:08:01.350Z,13.99
2017-10-11T06:08:41.928Z,14.07
2017-10-11T06:09:22.498Z,14.05
2017-10-11T06:10:03.079Z,14.03
2017-10-11T06:10:43.659Z,14.04
2017-10-11T06:11:24.244Z,14.03
2017-10-11T06:12:04.810Z,14.05
2017-10-11T06:12:45.399Z,14
2017-10-11T06:13:26.004Z,14.05
2017-10-11T06:14:06.589Z,14.04
2017-10-11T06:14:47.131Z,14.05
2017-10-11T06:15:27.713Z,14.11
2017-10-11T06:16:08.299Z,14.05
2017-10-11T06:16:48.877Z,14.07
2017-10-11T06:17:29.452Z,14.07
2017-10-11T06:18:10.023Z,14.04
2017-10-11T06:18:50.598Z,13.99
2017-10-11T06:19:31.165Z,14.05
2017-10-11T06:20:11.744Z,14.03
2017-10-11T06:20:52.316Z,14.07
2017-10-11T06:21:32.913Z,14.03
2017-10-11T06:22:13.476Z,14.11
2017-10-11T06:22:54.202Z,14.04
2017-10-11T06:23:34.773Z,14.04
2017-10-11T06:24:15.335Z,14.05
2017-10-11T06:24:55.979Z,14.04
2017-10-11T06:25:36.582Z,14.05
2017-10-11T06:26:17.172Z,14
2017-10-11T06:26:57.724Z,14.05
2017-10-11T06:27:38.302Z,14.1
2017-10-11T06:28:19.423Z,14.04
2017-10-11T06:29:00.031Z,14.05
2017-10-11T06:29:40.612Z,14.08
2017-10-11T06:30:21.191Z,14.07
2017-10-11T06:31:01.755Z,14.08
2017-10-11T06:31:42.343Z,14.1
2017-10-11T06:32:22.897Z,14
2017-10-11T06:33:03.461Z,14.1
2017-10-11T06:33:44.019Z,14.12
2017-10-11T06:34:24.588Z,14.11
2017-10-11T06:35:05.165Z,14.05
2017-10-11T06:35:45.735Z,14.08
2017-10-11T06:36:26.289Z,14.05
2017-10-11T06:37:06.855Z,14.07
2017-10-11T06:37:47.437Z,14.07
2017-10-11T06:38:28.053Z,14.08
2017-10-11T06:39:08.625Z,14.04
2017-10-11T06:39:49.213Z,13.96
2017-10-11T06:40:29.827Z,14.1
2017-10-11T06:41:10.386Z,13.97
2017-10-11T06:41:50.958Z,14.1
2017-10-11T06:42:31.536Z,14.04
2017-10-11T06:43:12.096Z,14.03
2017-10-11T06:43:52.709Z,14.07
2017-10-11T06:44:33.322Z,14.05
2017-10-11T06:45:13.922Z,14.08
2017-10-11T06:45:54.482Z,14.08
2017-10-11T06:46:35.769Z,14.1
2017-10-11T06:47:16.647Z,14.11
2017-10-11T06:47:57.210Z,14.1
2017-10-11T06:48:37.765Z,14.12
2017-10-11T06:49:18.366Z,14.12
2017-10-11T06:49:58.933Z,14.07
2017-10-11T06:50:39.500Z,14.12
2017-10-11T06:51:20.067Z,14.1
2017-10-11T06:52:00.740Z,14.14
2017-10-11T06:52:41.322Z,14.12
2017-10-11T06:53:21.886Z,14.1
2017-10-11T06:54:02.446Z,14.14
2017-10-11T06:54:43.028Z,14.15
2017-10-11T06:55:23.590Z,14.15
2017-10-11T06:56:04.202Z,14.22
2017-10-11T06:56:44.791Z,14.18
2017-10-11T06:57:25.355Z,14.23
2017-10-11T06:58:05.920Z,14.25
2017-10-11T06:58:46.507Z,14.26
2017-10-11T06:59:27.092Z,14.3
2017-10-11T07:00:07.662Z,14.25
2017-10-11T07:00:48.224Z,14.3
2017-10-11T07:01:28.861Z,14.29
2017-10-11T07:02:09.448Z,14.35
2017-10-11T07:02:50.012Z,14.35
2017-10-11T07:03:30.574Z,14.35
2017-10-11T07:04:11.171Z,14.35
2017-10-11T07:04:51.740Z,14.4
2017-10-11T07:05:32.312Z,14.43
2017-10-11T07:06:12.979Z,14.43
2017-10-11T07:06:53.637Z,14.37
2017-10-11T07:07:34.239Z,14.41
2017-10-11T07:08:14.807Z,14.43
2017-10-11T07:08:55.468Z,14.37
2017-10-11T07:09:36.053Z,14.37
2017-10-11T07:10:16.843Z,14.37
2017-10-11T07:10:57.409Z,14.43
2017-10-11T07:11:37.978Z,14.43
2017-10-11T07:12:18.538Z,14.43
2017-10-11T07:12:59.108Z,14.47
2017-10-11T07:13:39.708Z,14.45
2017-10-11T07:14:20.288Z,14.4
2017-10-11T07:15:00.851Z,14.36
2017-10-11T07:15:41.415Z,14.44
2017-10-11T07:16:21.985Z,14.4
2017-10-11T07:17:02.547Z,14.41
2017-10-11T07:17:43.106Z,14.33
2017-10-11T07:18:23.663Z,14.43
2017-10-11T07:19:04.400Z,14.36
2017-10-11T07:19:44.983Z,14.32
2017-10-11T07:20:25.564Z,14.48
2017-10-11T07:21:06.366Z,14.4
2017-10-11T07:21:46.962Z,14.36
2017-10-11T07:22:27.534Z,14.37
2017-10-11T07:23:08.093Z,14.37
2017-10-11T07:23:48.661Z,14.33
2017-10-11T07:24:29.254Z,14.37
2017-10-11T07:25:10.512Z,14.44
2017-10-11T07:25:51.218Z,14.36
2017-10-11T07:26:32.003Z,14.33
2017-10-11T07:27:12.607Z,14.4
2017-10-11T07:27:53.173Z,14.43
2017-10-11T07:28:33.738Z,14.37
2017-10-11T07:29:14.319Z,14.47
2017-10-11T07:29:54.926Z,14.41
2017-10-11T07:30:35.480Z,14.4
2017-10-11T07:31:16.046Z,14.4
2017-10-11T07:31:56.621Z,14.41
2017-10-11T07:32:37.188Z,14.4
2017-10-11T07:33:17.751Z,14.35
2017-10-11T07:33:58.322Z,14.35
2017-10-11T07:34:38.888Z,14.44
2017-10-11T07:35:19.458Z,14.45
2017-10-11T07:36:00.022Z,14.41
2017-10-11T07:36:40.590Z,14.36
2017-10-11T07:37:21.176Z,14.37
2017-10-11T07:38:01.750Z,14.4
2017-10-11T07:38:42.345Z,14.4
2017-10-11T07:39:22.916Z,14.47
2017-10-11T07:40:03.485Z,14.51
2017-10-11T07:40:44.057Z,14.5
2017-10-11T07:41:24.621Z,14.5
2017-10-11T07:42:05.190Z,14.48
2017-10-11T07:42:45.769Z,14.53
2017-10-11T07:43:26.489Z,14.5
2017-10-11T07:44:07.192Z,14.54
2017-10-11T07:44:47.768Z,14.48
2017-10-11T07:45:28.357Z,14.54
2017-10-11T07:46:08.927Z,14.48
2017-10-11T07:46:49.503Z,14.59
2017-10-11T07:47:30.063Z,14.5
2017-10-11T07:48:10.628Z,14.47
2017-10-11T07:48:51.211Z,14.59
2017-10-11T07:49:31.772Z,14.5
2017-10-11T07:50:12.336Z,14.48
2017-10-11T07:50:52.918Z,14.58
2017-10-11T07:51:33.486Z,14.55
2017-10-11T07:52:14.047Z,14.5
2017-10-11T07:52:54.610Z,14.6
2017-10-11T07:53:35.172Z,14.5
2017-10-11T07:54:15.742Z,14.51
2017-10-11T07:54:56.298Z,14.51
2017-10-11T07:55:36.870Z,14.53
2017-10-11T07:56:17.437Z,14.63
2017-10-11T07:56:58.005Z,14.58
2017-10-11T07:57:38.583Z,14.58
2017-10-11T07:58:19.162Z,14.62
2017-10-11T07:58:59.727Z,14.59
2017-10-11T07:59:40.298Z,14.63
2017-10-11T08:00:20.864Z,14.62
2017-10-11T08:01:01.411Z,14.62
2017-10-11T08:01:41.980Z,14.69
2017-10-11T08:02:22.551Z,14.65
2017-10-11T08:03:03.148Z,14.65
2017-10-11T08:03:43.707Z,14.73
2017-10-11T08:04:24.271Z,14.72
2017-10-11T08:05:04.844Z,14.7
2017-10-11T08:05:45.417Z,14.69
2017-10-11T08:06:25.981Z,14.78
2017-10-11T08:07:06.546Z,14.77
2017-10-11T08:07:47.120Z,14.81
2017-10-11T08:08:27.704Z,14.68
2017-10-11T08:09:08.308Z,14.79
2017-10-11T08:09:48.874Z,14.79
2017-10-11T08:10:29.442Z,14.81
2017-10-11T08:11:10.010Z,14.69
2017-10-11T08:11:50.579Z,14.81
2017-10-11T08:12:31.177Z,14.81
2017-10-11T08:13:11.739Z,14.73
2017-10-11T08:13:52.303Z,14.82
2017-10-11T08:14:32.881Z,14.81
2017-10-11T08:15:13.448Z,14.77
2017-10-11T08:15:54.011Z,14.78
2017-10-11T08:16:34.579Z,14.86
2017-10-11T08:17:15.139Z,14.73
2017-10-11T08:17:55.699Z,14.73
2017-10-11T08:18:36.272Z,14.79
2017-10-11T08:19:16.851Z,14.77
2017-10-11T08:19:57.419Z,14.84
2017-10-11T08:20:38.011Z,14.84
2017-10-11T08:21:18.574Z,14.81
2017-10-11T08:21:59.145Z,14.73
2017-10-11T08:22:39.714Z,14.84
2017-10-11T08:23:20.282Z,14.78
2017-10-11T08:24:00.854Z,14.86
2017-10-11T08:24:41.413Z,14.86
2017-10-11T08:25:21.981Z,14.89
2017-10-11T08:26:02.548Z,14.88
2017-10-11T08:26:43.105Z,14.92
2017-10-11T08:27:23.671Z,14.91
2017-10-11T08:28:04.234Z,14.89
2017-10-11T08:28:44.789Z,14.86
2017-10-11T08:29:25.344Z,14.91
2017-10-11T08:30:05.895Z,14.97
2017-10-11T08:30:46.464Z,14.89
2017-10-11T08:31:27.038Z,14.86
2017-10-11T08:32:07.611Z,14.88
2017-10-11T08:32:48.172Z,15
2017-10-11T08:33:28.753Z,14.97
2017-10-11T08:34:09.323Z,14.94
2017-10-11T08:34:49.889Z,15.03
2017-10-11T08:35:30.482Z,14.92
2017-10-11T08:36:11.075Z,15
2017-10-11T08:36:51.642Z,14.99
2017-10-11T08:37:32.258Z,15.03
2017-10-11T08:38:12.812Z,15.14
2017-10-11T08:38:53.382Z,15.14
2017-10-11T08:39:33.950Z,15.29
2017-10-11T08:40:14.511Z,15.33
2017-10-11T08:40:55.087Z,15.42
2017-10-11T08:41:35.662Z,15.51
2017-10-11T08:42:16.221Z,15.59
2017-10-11T08:42:56.785Z,15.58
2017-10-11T08:43:37.354Z,15.73
2017-10-11T08:44:17.917Z,15.7
2017-10-11T08:44:58.493Z,15.75
2017-10-11T08:45:39.059Z,15.73
2017-10-11T08:46:19.624Z,15.72
2017-10-11T08:47:00.200Z,15.64
2017-10-11T08:47:40.783Z,15.67
2017-10-11T08:48:21.339Z,15.72
2017-10-11T08:49:01.917Z,15.67
2017-10-11T08:49:42.488Z,15.67
2017-10-11T08:50:23.061Z,15.72
2017-10-11T08:51:03.631Z,15.62